Time;durP1;ratioP1;P1;durP2;ratioP2;P2;SDS_P1;SDS_P2;PMS_P1;PMS_P2;Temp;Humidity;BMP_temperature;BMP_pressure;BME280_temperature;BME280_humidity;BME280_pressure;Samples;Min_cycle;Max_cycle;Signal;HPM_P1;HPM_P2
2022/07/25 00:00:41;;;;;;;8.47;7.43;;;;;;;;;;5055303;28;20555;-67
2022/07/25 00:03:07;;;;;;;8.00;7.20;;;;;;;;;;5055420;28;20178;-67
2022/07/25 00:05:33;;;;;;;9.27;7.73;;;;;;;;;;5073652;28;20193;-67
2022/07/25 00:07:59;;;;;;;9.07;7.97;;;;;;;;;;5073478;28;20182;-67
2022/07/25 00:10:25;;;;;;;9.63;7.13;;;;;;;;;;5073269;28;20178;-67
2022/07/25 00:12:51;;;;;;;10.10;7.40;;;;;;;;;;5073286;28;20234;-67
2022/07/25 00:15:17;;;;;;;9.00;7.00;;;;;;;;;;5073230;28;20205;-67
2022/07/25 00:17:43;;;;;;;9.67;7.30;;;;;;;;;;5055121;28;20286;-68
2022/07/25 00:20:09;;;;;;;9.33;6.63;;;;;;;;;;5055411;28;20681;-67
2022/07/25 00:22:35;;;;;;;8.43;6.83;;;;;;;;;;5073185;28;20258;-67
2022/07/25 00:25:01;;;;;;;10.23;7.30;;;;;;;;;;5055246;28;20193;-67
2022/07/25 00:27:27;;;;;;;7.50;6.80;;;;;;;;;;5073116;28;20181;-67
2022/07/25 00:29:53;;;;;;;8.53;6.70;;;;;;;;;;5072806;28;20189;-67
2022/07/25 00:32:19;;;;;;;9.70;7.50;;;;;;;;;;5073040;28;20264;-67
2022/07/25 00:34:45;;;;;;;8.23;6.93;;;;;;;;;;5072819;28;20198;-67
2022/07/25 00:37:11;;;;;;;11.10;7.37;;;;;;;;;;5072684;28;20687;-67
2022/07/25 00:39:37;;;;;;;8.70;7.13;;;;;;;;;;5076928;28;20257;-68
2022/07/25 00:42:03;;;;;;;11.67;7.40;;;;;;;;;;5076821;28;20638;-68
2022/07/25 00:44:30;;;;;;;9.87;7.10;;;;;;;;;;5076625;28;20209;-67
2022/07/25 00:46:57;;;;;;;7.73;6.87;;;;;;;;;;5058650;28;20235;-68
2022/07/25 00:49:23;;;;;;;9.13;6.90;;;;;;;;;;5076908;28;20181;-67
2022/07/25 00:51:50;;;;;;;9.90;6.33;;;;;;;;;;5076877;28;20181;-67
2022/07/25 00:54:16;;;;;;;7.07;6.37;;;;;;;;;;5058473;28;20684;-67
2022/07/25 00:56:43;;;;;;;8.00;6.73;;;;;;;;;;5076778;28;20201;-67
2022/07/25 00:59:09;;;;;;;7.97;6.73;;;;;;;;;;5076451;28;20264;-67
2022/07/25 01:01:35;;;;;;;7.97;7.17;;;;;;;;;;5076618;28;20185;-67
2022/07/25 01:04:01;;;;;;;9.20;7.00;;;;;;;;;;5076580;28;20315;-67
2022/07/25 01:06:27;;;;;;;8.63;6.43;;;;;;;;;;5076294;28;20596;-67
2022/07/25 01:08:53;;;;;;;8.33;6.80;;;;;;;;;;5076450;28;20181;-67
2022/07/25 01:11:20;;;;;;;9.33;6.70;;;;;;;;;;5076178;28;20272;-68
2022/07/25 01:13:46;;;;;;;7.40;6.70;;;;;;;;;;5058055;28;20209;-68
2022/07/25 01:16:11;;;;;;;7.70;6.50;;;;;;;;;;5075679;28;20766;-67
2022/07/25 01:18:37;;;;;;;7.87;7.00;;;;;;;;;;5076296;28;20213;-67
2022/07/25 01:21:04;;;;;;;14.33;7.47;;;;;;;;;;5058090;28;20200;-67
2022/07/25 01:23:30;;;;;;;7.47;6.77;;;;;;;;;;5076381;28;20186;-67
2022/07/25 01:25:56;;;;;;;9.37;7.40;;;;;;;;;;5076113;28;20198;-68
2022/07/25 01:28:22;;;;;;;9.47;7.47;;;;;;;;;;5057921;28;20186;-67
2022/07/25 01:30:48;;;;;;;8.93;7.03;;;;;;;;;;5057999;28;20177;-67
2022/07/25 01:33:18;;;;;;;7.20;6.50;;;;;;;;;;5057795;28;20642;-67
2022/07/25 01:35:44;;;;;;;11.07;7.50;;;;;;;;;;5075630;28;20193;-68
2022/07/25 01:38:11;;;;;;;8.07;7.30;;;;;;;;;;5075863;28;20189;-67
2022/07/25 01:40:37;;;;;;;7.00;6.30;;;;;;;;;;5075968;28;20186;-67
2022/07/25 01:43:03;;;;;;;9.97;7.30;;;;;;;;;;5075895;28;20227;-67
2022/07/25 01:45:29;;;;;;;7.93;7.13;;;;;;;;;;5076024;28;20209;-67
2022/07/25 01:47:55;;;;;;;9.27;7.23;;;;;;;;;;5075498;28;20265;-67
2022/07/25 01:50:21;;;;;;;22.13;7.90;;;;;;;;;;5075224;28;20654;-66
2022/07/25 01:52:47;;;;;;;9.87;8.10;;;;;;;;;;5057239;28;20230;-67
2022/07/25 01:55:13;;;;;;;11.13;8.10;;;;;;;;;;5075527;28;20289;-66
2022/07/25 01:57:39;;;;;;;11.47;7.80;;;;;;;;;;5075199;28;20633;-66
2022/07/25 02:00:07;;;;;;;8.03;7.10;;;;;;;;;;5057222;28;20186;-66
2022/07/25 02:02:32;;;;;;;8.57;7.67;;;;;;;;;;5075567;28;20208;-66
2022/07/25 02:04:58;;;;;;;13.47;8.30;;;;;;;;;;5074985;28;20283;-66
2022/07/25 02:07:24;;;;;;;8.70;7.80;;;;;;;;;;5074956;28;20189;-66
2022/07/25 02:09:50;;;;;;;9.20;7.33;;;;;;;;;;5074888;28;20189;-66
2022/07/25 02:12:16;;;;;;;10.60;7.87;;;;;;;;;;5075497;28;20208;-66
2022/07/25 02:14:42;;;;;;;15.47;8.23;;;;;;;;;;5075200;28;20224;-67
2022/07/25 02:17:08;;;;;;;8.83;7.93;;;;;;;;;;5074822;28;20744;-66
2022/07/25 02:19:35;;;;;;;11.50;8.17;;;;;;;;;;5074898;28;20253;-66
2022/07/25 02:22:01;;;;;;;9.30;8.20;;;;;;;;;;5075105;28;20261;-66
2022/07/25 02:24:27;;;;;;;10.73;8.20;;;;;;;;;;5056865;28;20251;-67
2022/07/25 02:26:53;;;;;;;13.97;8.40;;;;;;;;;;5075411;28;20182;-67
2022/07/25 02:29:18;;;;;;;9.73;8.17;;;;;;;;;;5074869;28;20178;-66
2022/07/25 02:31:44;;;;;;;13.47;7.50;;;;;;;;;;5056824;28;20210;-67
2022/07/25 02:34:10;;;;;;;11.33;7.97;;;;;;;;;;5074587;28;20185;-67
2022/07/25 02:36:36;;;;;;;9.43;7.50;;;;;;;;;;5074556;28;20266;-67
2022/07/25 02:39:02;;;;;;;9.43;7.40;;;;;;;;;;5074612;28;20174;-67
2022/07/25 02:41:28;;;;;;;10.03;7.60;;;;;;;;;;5074552;28;20540;-67
2022/07/25 02:43:54;;;;;;;8.23;7.40;;;;;;;;;;5056378;28;20260;-66
2022/07/25 02:46:20;;;;;;;9.83;7.30;;;;;;;;;;5056467;28;20185;-67
2022/07/25 02:48:46;;;;;;;9.13;7.70;;;;;;;;;;5074894;28;20664;-67
2022/07/25 02:51:12;;;;;;;7.50;6.80;;;;;;;;;;5074459;28;20612;-68
2022/07/25 02:53:38;;;;;;;11.43;8.20;;;;;;;;;;5074259;28;20180;-67
2022/07/25 02:56:05;;;;;;;8.20;7.40;;;;;;;;;;5074088;28;20213;-67
2022/07/25 02:58:31;;;;;;;11.17;7.60;;;;;;;;;;5074681;28;20231;-67
2022/07/25 03:00:57;;;;;;;9.23;7.23;;;;;;;;;;5073127;28;20227;-67
2022/07/25 03:03:23;;;;;;;8.50;7.13;;;;;;;;;;5074515;28;20258;-67
2022/07/25 03:05:49;;;;;;;11.40;7.13;;;;;;;;;;5074171;28;20280;-67
2022/07/25 03:08:15;;;;;;;13.63;8.13;;;;;;;;;;5073911;28;20174;-67
2022/07/25 03:10:41;;;;;;;9.30;7.60;;;;;;;;;;5073812;28;20180;-67
2022/07/25 03:13:07;;;;;;;8.23;7.40;;;;;;;;;;5073997;28;20174;-67
2022/07/25 03:15:33;;;;;;;9.13;7.67;;;;;;;;;;5073554;28;20201;-67
2022/07/25 03:17:59;;;;;;;8.57;7.40;;;;;;;;;;5055549;28;20202;-67
2022/07/25 03:20:25;;;;;;;9.60;7.20;;;;;;;;;;5073587;28;20173;-67
2022/07/25 03:22:51;;;;;;;9.90;7.40;;;;;;;;;;5073549;28;20181;-67
2022/07/25 03:25:17;;;;;;;9.07;7.23;;;;;;;;;;5073279;28;20224;-67
2022/07/25 03:27:43;;;;;;;8.37;7.10;;;;;;;;;;5055615;28;20178;-67
2022/07/25 03:30:09;;;;;;;10.80;8.43;;;;;;;;;;5055534;28;20185;-66
2022/07/25 03:32:35;;;;;;;9.33;7.17;;;;;;;;;;5055414;28;20188;-67
2022/07/25 03:35:01;;;;;;;9.07;7.80;;;;;;;;;;5073238;28;20569;-67
2022/07/25 03:37:27;;;;;;;12.23;7.73;;;;;;;;;;5073216;28;20270;-67
2022/07/25 03:39:53;;;;;;;11.63;7.37;;;;;;;;;;5073559;28;20200;-67
2022/07/25 03:42:19;;;;;;;8.87;7.33;;;;;;;;;;5073264;28;20268;-67
2022/07/25 03:44:45;;;;;;;8.70;7.63;;;;;;;;;;5073113;28;20197;-67
2022/07/25 03:47:11;;;;;;;10.23;7.67;;;;;;;;;;5073299;28;20181;-67
2022/07/25 03:49:37;;;;;;;10.53;7.13;;;;;;;;;;5055229;28;20177;-67
2022/07/25 03:52:03;;;;;;;11.00;7.37;;;;;;;;;;5073305;28;20181;-67
2022/07/25 03:54:29;;;;;;;12.27;7.70;;;;;;;;;;5073242;28;20205;-67
2022/07/25 03:56:55;;;;;;;8.40;7.50;;;;;;;;;;5055094;28;20597;-67
2022/07/25 03:59:21;;;;;;;9.10;7.27;;;;;;;;;;5073336;28;20170;-67
2022/07/25 04:01:48;;;;;;;10.00;7.10;;;;;;;;;;5073345;28;20323;-67
2022/07/25 04:04:14;;;;;;;8.60;6.77;;;;;;;;;;5073133;28;20193;-67
2022/07/25 04:06:40;;;;;;;11.27;7.73;;;;;;;;;;5073653;28;20205;-67
2022/07/25 04:09:07;;;;;;;8.20;7.40;;;;;;;;;;5055205;28;20282;-67
2022/07/25 04:11:34;;;;;;;8.53;6.80;;;;;;;;;;5073150;28;20211;-67
2022/07/25 04:14:01;;;;;;;7.93;6.50;;;;;;;;;;5055020;28;20185;-67
2022/07/25 04:16:27;;;;;;;10.33;6.67;;;;;;;;;;5073191;28;20600;-67
2022/07/25 04:18:53;;;;;;;8.73;6.73;;;;;;;;;;5072950;28;20260;-67
2022/07/25 04:21:19;;;;;;;8.07;7.30;;;;;;;;;;5072920;28;20322;-67
2022/07/25 04:23:45;;;;;;;7.80;7.00;;;;;;;;;;5072955;28;20185;-67
2022/07/25 04:26:11;;;;;;;7.67;6.10;;;;;;;;;;5072803;28;20199;-67
2022/07/25 04:28:37;;;;;;;9.03;6.77;;;;;;;;;;5055034;28;20182;-67
2022/07/25 04:31:03;;;;;;;7.03;6.43;;;;;;;;;;5054941;28;20261;-67
2022/07/25 04:33:29;;;;;;;7.67;6.90;;;;;;;;;;5072942;28;20412;-67
2022/07/25 04:35:55;;;;;;;9.43;7.27;;;;;;;;;;5072838;28;20625;-67
2022/07/25 04:38:21;;;;;;;9.13;7.07;;;;;;;;;;5072830;28;20643;-67
2022/07/25 04:40:47;;;;;;;12.10;7.10;;;;;;;;;;5072935;28;20253;-67
2022/07/25 04:43:13;;;;;;;7.57;6.80;;;;;;;;;;5073189;28;20177;-67
2022/07/25 04:45:39;;;;;;;10.07;6.97;;;;;;;;;;5072810;28;20286;-67
2022/07/25 04:48:05;;;;;;;10.30;7.00;;;;;;;;;;5072762;28;20634;-67
2022/07/25 04:50:31;;;;;;;7.30;6.50;;;;;;;;;;5054663;28;20178;-67
2022/07/25 04:52:57;;;;;;;8.87;7.17;;;;;;;;;;5072759;28;20181;-68
2022/07/25 04:55:23;;;;;;;9.27;7.27;;;;;;;;;;5054546;28;20202;-67
2022/07/25 04:57:49;;;;;;;8.63;6.70;;;;;;;;;;5072468;28;20244;-67
2022/07/25 05:00:16;;;;;;;9.80;7.10;;;;;;;;;;5072626;28;20279;-67
2022/07/25 05:02:41;;;;;;;7.60;6.20;;;;;;;;;;5054484;28;20185;-67
2022/07/25 05:05:08;;;;;;;9.90;6.50;;;;;;;;;;5072397;28;20202;-67
2022/07/25 05:07:34;;;;;;;10.37;6.73;;;;;;;;;;5072452;28;20178;-67
2022/07/25 05:10:00;;;;;;;10.27;7.27;;;;;;;;;;5072498;28;20181;-67
2022/07/25 05:12:26;;;;;;;8.37;6.93;;;;;;;;;;5072334;28;20264;-67
2022/07/25 05:14:53;;;;;;;8.13;7.07;;;;;;;;;;5072306;28;20205;-67
2022/07/25 05:17:20;;;;;;;9.43;6.93;;;;;;;;;;5072296;28;20303;-67
2022/07/25 05:19:46;;;;;;;7.23;6.50;;;;;;;;;;5072633;28;20239;-67
2022/07/25 05:22:11;;;;;;;9.83;7.27;;;;;;;;;;5072393;28;20186;-67
2022/07/25 05:24:38;;;;;;;9.10;6.60;;;;;;;;;;5074297;28;20251;-67
2022/07/25 05:27:04;;;;;;;11.63;6.73;;;;;;;;;;5076255;28;20543;-67
2022/07/25 05:29:30;;;;;;;10.10;7.10;;;;;;;;;;5076105;28;20182;-67
2022/07/25 05:31:56;;;;;;;7.67;6.60;;;;;;;;;;5075750;28;20182;-67
2022/07/25 05:34:22;;;;;;;9.33;7.10;;;;;;;;;;5075544;28;20573;-67
2022/07/25 05:36:48;;;;;;;9.63;7.30;;;;;;;;;;5075724;28;20201;-67
2022/07/25 05:39:14;;;;;;;8.83;6.37;;;;;;;;;;5075539;28;20174;-67
2022/07/25 05:41:40;;;;;;;8.90;6.60;;;;;;;;;;5075647;28;20217;-67
2022/07/25 05:44:06;;;;;;;8.10;6.40;;;;;;;;;;5075287;28;20264;-67
2022/07/25 05:46:32;;;;;;;8.93;6.43;;;;;;;;;;5057601;28;20636;-67
2022/07/25 05:48:58;;;;;;;8.27;6.47;;;;;;;;;;5075413;28;20178;-67
2022/07/25 05:51:24;;;;;;;9.60;6.90;;;;;;;;;;5075652;28;20188;-67
2022/07/25 05:53:50;;;;;;;8.07;7.03;;;;;;;;;;5075223;28;20245;-67
2022/07/25 05:56:16;;;;;;;7.83;6.70;;;;;;;;;;5075257;28;20259;-67
2022/07/25 05:58:42;;;;;;;9.90;7.93;;;;;;;;;;5075352;28;20231;-67
2022/07/25 06:01:11;;;;;;;8.73;7.00;;;;;;;;;;5075397;28;20185;-67
2022/07/25 06:03:37;;;;;;;10.23;6.80;;;;;;;;;;5057251;28;20189;-67
2022/07/25 06:06:03;;;;;;;10.57;6.80;;;;;;;;;;5075158;28;20194;-67
2022/07/25 06:08:29;;;;;;;7.63;6.80;;;;;;;;;;5075298;28;20177;-67
2022/07/25 06:10:56;;;;;;;10.17;6.87;;;;;;;;;;5075112;28;20174;-67
2022/07/25 06:13:22;;;;;;;10.17;7.13;;;;;;;;;;5075136;28;20173;-66
2022/07/25 06:15:48;;;;;;;10.23;6.90;;;;;;;;;;5075304;28;20209;-67
2022/07/25 06:18:14;;;;;;;9.93;7.27;;;;;;;;;;5057029;28;20300;-67
2022/07/25 06:20:40;;;;;;;7.10;6.43;;;;;;;;;;5075189;28;20182;-67
2022/07/25 06:23:06;;;;;;;8.00;6.40;;;;;;;;;;5074843;28;20177;-67
2022/07/25 06:25:32;;;;;;;7.80;6.40;;;;;;;;;;5074778;28;20280;-67
2022/07/25 06:27:58;;;;;;;7.90;7.10;;;;;;;;;;5056807;28;20186;-67
2022/07/25 06:30:24;;;;;;;8.10;6.87;;;;;;;;;;5056741;28;20181;-68
2022/07/25 06:32:50;;;;;;;9.63;7.73;;;;;;;;;;5074832;28;20181;-67
2022/07/25 06:35:17;;;;;;;8.10;7.10;;;;;;;;;;5056578;28;20673;-67
2022/07/25 06:37:43;;;;;;;9.50;6.93;;;;;;;;;;5074583;28;20646;-67
2022/07/25 06:40:09;;;;;;;10.33;7.40;;;;;;;;;;5075136;28;20184;-68
2022/07/25 06:42:39;;;;;;;9.50;6.97;;;;;;;;;;5074617;28;20174;-67
2022/07/25 06:45:06;;;;;;;8.17;6.97;;;;;;;;;;5074414;28;20228;-67
2022/07/25 06:47:31;;;;;;;9.70;7.50;;;;;;;;;;5074366;28;20640;-67
2022/07/25 06:49:57;;;;;;;10.20;7.13;;;;;;;;;;5074950;28;20646;-67
2022/07/25 06:52:23;;;;;;;8.40;7.50;;;;;;;;;;5074349;28;20540;-67
2022/07/25 06:54:49;;;;;;;9.60;7.67;;;;;;;;;;5074358;28;20690;-67
2022/07/25 06:57:15;;;;;;;13.17;6.90;;;;;;;;;;5074662;28;20662;-67
2022/07/25 06:59:43;;;;;;;8.97;7.40;;;;;;;;;;5056276;28;20181;-67
2022/07/25 07:02:09;;;;;;;8.40;7.17;;;;;;;;;;5074180;28;20170;-68
2022/07/25 07:04:35;;;;;;;8.20;6.17;;;;;;;;;;5056873;28;20200;-67
2022/07/25 07:07:01;;;;;;;7.70;6.77;;;;;;;;;;5075357;28;20186;-67
2022/07/25 07:09:27;;;;;;;7.33;6.57;;;;;;;;;;5074506;28;20189;-68
2022/07/25 07:11:53;;;;;;;7.03;6.40;;;;;;;;;;5073963;28;20596;-68
2022/07/25 07:14:19;;;;;;;8.63;6.77;;;;;;;;;;5073832;28;20658;-68
2022/07/25 07:16:45;;;;;;;8.07;6.83;;;;;;;;;;5073658;28;20209;-68
2022/07/25 07:19:13;;;;;;;12.23;7.03;;;;;;;;;;5055911;28;20178;-68
2022/07/25 07:21:39;;;;;;;11.17;7.27;;;;;;;;;;5055796;28;20223;-69
2022/07/25 07:24:05;;;;;;;7.80;6.97;;;;;;;;;;5056066;28;20584;-68
2022/07/25 07:26:31;;;;;;;9.47;7.20;;;;;;;;;;5055797;28;20231;-68
2022/07/25 07:28:57;;;;;;;8.57;6.70;;;;;;;;;;5055672;28;20182;-67
2022/07/25 07:31:23;;;;;;;8.77;6.97;;;;;;;;;;5073494;28;20270;-68
2022/07/25 07:33:49;;;;;;;8.90;7.20;;;;;;;;;;5073782;28;20193;-68
2022/07/25 07:36:15;;;;;;;7.33;6.27;;;;;;;;;;5055441;28;20213;-67
2022/07/25 07:38:41;;;;;;;7.13;6.43;;;;;;;;;;5073512;28;20232;-68
2022/07/25 07:41:07;;;;;;;6.80;6.13;;;;;;;;;;5073400;28;20166;-68
2022/07/25 07:43:33;;;;;;;8.30;6.87;;;;;;;;;;5055446;28;20733;-68
2022/07/25 07:45:59;;;;;;;7.33;6.63;;;;;;;;;;5055191;28;20547;-69
2022/07/25 07:48:29;;;;;;;7.27;6.57;;;;;;;;;;5073106;28;20170;-68
2022/07/25 07:50:55;;;;;;;6.83;6.13;;;;;;;;;;5073263;28;20630;-69
2022/07/25 07:53:21;;;;;;;8.60;6.50;;;;;;;;;;5055315;28;20178;-67
2022/07/25 07:55:53;;;;;;;7.00;6.30;;;;;;;;;;5073213;28;20292;-67
2022/07/25 07:58:19;;;;;;;6.77;6.17;;;;;;;;;;5073591;28;20158;-68
2022/07/25 08:00:48;;;;;;;9.63;6.50;;;;;;;;;;5055176;28;20174;-68
2022/07/25 08:03:17;;;;;;;7.20;5.97;;;;;;;;;;5073442;28;20540;-69
2022/07/25 08:05:43;;;;;;;7.53;6.37;;;;;;;;;;5072984;28;20194;-68
2022/07/25 08:08:11;;;;;;;10.63;6.73;;;;;;;;;;5073039;28;20181;-68
2022/07/25 08:10:38;;;;;;;6.40;5.80;;;;;;;;;;5073005;28;20276;-68
2022/07/25 08:13:12;;;;;;;7.17;5.90;;;;;;;;;;5073246;28;20660;-68
2022/07/25 08:15:38;;;;;;;6.97;5.20;;;;;;;;;;5054851;28;20677;-68
2022/07/25 08:18:04;;;;;;;10.37;5.57;;;;;;;;;;5055069;28;20287;-68
2022/07/25 08:20:30;;;;;;;7.33;6.43;;;;;;;;;;5072992;28;20650;-68
2022/07/25 08:22:56;;;;;;;6.40;5.83;;;;;;;;;;5072939;28;20257;-68
2022/07/25 08:25:22;;;;;;;6.87;6.17;;;;;;;;;;5054934;28;20198;-68
2022/07/25 08:27:49;;;;;;;7.63;6.20;;;;;;;;;;5073389;28;20181;-68
2022/07/25 08:30:15;;;;;;;7.53;6.27;;;;;;;;;;5055026;28;20181;-68
2022/07/25 08:33:12;;;;;;;6.97;6.20;;;;;;;;;;5054883;28;20178;-68
2022/07/25 08:35:38;;;;;;;10.90;6.53;;;;;;;;;;5035060;28;20224;-68
2022/07/25 08:38:04;;;;;;;6.80;6.03;;;;;;;;;;5072781;28;20225;-68
2022/07/25 08:40:31;;;;;;;7.17;6.40;;;;;;;;;;5054839;28;20178;-68
2022/07/25 08:42:57;;;;;;;6.73;6.03;;;;;;;;;;5055691;28;20180;-69
2022/07/25 08:45:24;;;;;;;6.53;5.93;;;;;;;;;;5060331;28;20701;-65
2022/07/25 08:47:51;;;;;;;8.53;6.10;;;;;;;;;;5072967;28;20215;-65
2022/07/25 08:50:18;;;;;;;6.67;6.17;;;;;;;;;;5054752;28;20182;-64
2022/07/25 08:52:46;;;;;;;6.70;5.80;;;;;;;;;;5057784;28;20642;-67
2022/07/25 08:55:14;;;;;;;6.43;5.63;;;;;;;;;;5072682;28;20281;-67
2022/07/25 08:57:42;;;;;;;8.37;6.97;;;;;;;;;;5054687;28;20205;-68
2022/07/25 09:00:10;;;;;;;12.50;6.73;;;;;;;;;;5075583;28;20213;-67
2022/07/25 09:02:37;;;;;;;9.17;6.20;;;;;;;;;;5076937;28;20224;-67
2022/07/25 09:05:03;;;;;;;7.13;6.43;;;;;;;;;;5076656;28;20591;-67
2022/07/25 09:07:30;;;;;;;7.23;6.00;;;;;;;;;;5076383;28;20173;-66
2022/07/25 09:09:56;;;;;;;8.50;6.60;;;;;;;;;;5076558;28;20177;-67
2022/07/25 09:12:26;;;;;;;7.83;7.03;;;;;;;;;;5076244;28;20232;-67
2022/07/25 09:14:52;;;;;;;10.57;6.93;;;;;;;;;;5058306;28;20579;-67
2022/07/25 09:17:18;;;;;;;9.83;6.87;;;;;;;;;;5058154;28;20214;-66
2022/07/25 09:19:51;;;;;;;8.17;6.90;;;;;;;;;;5058570;28;20216;-67
2022/07/25 09:22:17;;;;;;;7.43;6.53;;;;;;;;;;5076494;28;20211;-67
2022/07/25 09:24:44;;;;;;;7.47;6.77;;;;;;;;;;5076301;28;20242;-66
2022/07/25 09:27:11;;;;;;;11.50;6.60;;;;;;;;;;5076043;28;20182;-66
2022/07/25 09:29:38;;;;;;;6.47;5.80;;;;;;;;;;5058082;28;20661;-66
2022/07/25 09:32:21;;;;;;;6.47;5.40;;;;;;;;;;5058000;28;20192;-66
2022/07/25 09:34:48;;;;;;;8.27;5.33;;;;;;;;;;5057936;28;20677;-67
2022/07/25 09:37:15;;;;;;;6.70;5.50;;;;;;;;;;5057808;28;20232;-67
2022/07/25 09:39:43;;;;;;;5.50;5.00;;;;;;;;;;5076050;28;20177;-66
2022/07/25 09:42:24;;;;;;;13.23;6.60;;;;;;;;;;5075855;28;20181;-67
2022/07/25 09:45:02;;;;;;;8.00;5.60;;;;;;;;;;5057700;28;20209;-66
2022/07/25 09:47:29;;;;;;;6.23;5.23;;;;;;;;;;5076135;28;20608;-67
2022/07/25 09:49:55;;;;;;;5.80;5.03;;;;;;;;;;5057799;28;20642;-65
2022/07/25 09:52:21;;;;;;;6.90;5.30;;;;;;;;;;5075487;28;20182;-66
2022/07/25 09:54:47;;;;;;;6.07;4.70;;;;;;;;;;5075451;28;20198;-66
2022/07/25 09:57:13;;;;;;;5.53;5.03;;;;;;;;;;5075472;28;20212;-67
2022/07/25 09:59:39;;;;;;;5.23;4.73;;;;;;;;;;5057430;28;20554;-66
2022/07/25 10:02:12;;;;;;;5.23;4.60;;;;;;;;;;5057400;28;20173;-67
2022/07/25 10:04:43;;;;;;;6.80;4.57;;;;;;;;;;5075318;28;20204;-66
2022/07/25 10:07:11;;;;;;;4.33;3.93;;;;;;;;;;5075267;28;20182;-66
2022/07/25 10:09:44;;;;;;;5.00;4.50;;;;;;;;;;5056980;28;20190;-67
2022/07/25 10:12:11;;;;;;;5.10;3.90;;;;;;;;;;5075781;28;20166;-66
2022/07/25 10:14:37;;;;;;;4.70;4.00;;;;;;;;;;5075473;28;20576;-68
2022/07/25 10:17:04;;;;;;;4.93;3.80;;;;;;;;;;5074865;28;20244;-68
2022/07/25 10:19:43;;;;;;;8.77;3.73;;;;;;;;;;5057196;28;20315;-66
2022/07/25 10:22:09;;;;;;;4.17;3.87;;;;;;;;;;5074930;28;20678;-66
2022/07/25 10:24:37;;;;;;;5.47;3.83;;;;;;;;;;5056994;28;20314;-66
2022/07/25 10:27:07;;;;;;;5.80;4.37;;;;;;;;;;5074880;28;20251;-67
2022/07/25 10:29:34;;;;;;;4.57;3.53;;;;;;;;;;5056807;28;20665;-66
2022/07/25 10:32:08;;;;;;;4.30;3.77;;;;;;;;;;5074738;28;20189;-67
2022/07/25 10:34:34;;;;;;;3.90;3.53;;;;;;;;;;5074691;28;20208;-67
2022/07/25 10:37:09;;;;;;;7.40;3.40;;;;;;;;;;5074535;28;20665;-67
2022/07/25 10:39:40;;;;;;;5.43;3.60;;;;;;;;;;5074820;28;20174;-65
2022/07/25 10:42:06;;;;;;;5.93;3.70;;;;;;;;;;5074541;28;20173;-65
2022/07/25 10:44:45;;;;;;;4.30;3.70;;;;;;;;;;5056537;28;20194;-66
2022/07/25 10:47:12;;;;;;;4.50;3.67;;;;;;;;;;5074486;28;20224;-67
2022/07/25 10:49:40;;;;;;;6.23;4.00;;;;;;;;;;5074725;28;20174;-66
2022/07/25 10:52:06;;;;;;;5.43;4.67;;;;;;;;;;5074755;28;20633;-67
2022/07/25 10:54:36;;;;;;;4.03;3.67;;;;;;;;;;5074190;28;20213;-66
2022/07/25 10:57:03;;;;;;;7.73;3.90;;;;;;;;;;5057235;28;20600;-67
2022/07/25 10:59:36;;;;;;;4.50;4.10;;;;;;;;;;5074196;28;20177;-67
2022/07/25 11:02:03;;;;;;;4.33;3.93;;;;;;;;;;5056133;28;20203;-67
2022/07/25 11:04:29;;;;;;;4.50;4.07;;;;;;;;;;5056137;28;20197;-67
2022/07/25 11:06:55;;;;;;;4.80;4.37;;;;;;;;;;5056279;28;20186;-67
2022/07/25 11:09:23;;;;;;;7.03;3.80;;;;;;;;;;5074311;28;20177;-67
2022/07/25 11:11:50;;;;;;;5.73;4.00;;;;;;;;;;5073981;28;20178;-67
2022/07/25 11:14:32;;;;;;;4.67;3.73;;;;;;;;;;5073977;28;20560;-68
2022/07/25 11:17:08;;;;;;;4.73;3.70;;;;;;;;;;5073596;28;20209;-68
2022/07/25 11:19:34;;;;;;;5.30;3.53;;;;;;;;;;5073994;28;20161;-68
2022/07/25 11:22:03;;;;;;;6.23;3.83;;;;;;;;;;5072866;28;20181;-67
2022/07/25 11:24:35;;;;;;;4.53;3.90;;;;;;;;;;5055673;28;20634;-68
2022/07/25 11:27:02;;;;;;;6.13;3.67;;;;;;;;;;5055704;28;20182;-68
2022/07/25 11:29:27;;;;;;;6.70;4.17;;;;;;;;;;5055708;28;20669;-68
2022/07/25 11:31:55;;;;;;;4.13;3.67;;;;;;;;;;5073565;28;20182;-68
2022/07/25 11:34:22;;;;;;;3.60;3.30;;;;;;;;;;5055480;28;20583;-67
2022/07/25 11:36:49;;;;;;;3.40;3.10;;;;;;;;;;5073700;28;20228;-67
2022/07/25 11:39:16;;;;;;;5.20;3.43;;;;;;;;;;5073401;28;20178;-68
2022/07/25 11:41:42;;;;;;;7.60;3.60;;;;;;;;;;5072508;28;20395;-68
2022/07/25 11:44:08;;;;;;;5.00;3.80;;;;;;;;;;5073258;28;20235;-67
2022/07/25 11:46:42;;;;;;;4.32;3.72;;;;;;;;;;5073377;28;20184;-67
2022/07/25 11:49:08;;;;;;;4.40;3.40;;;;;;;;;;5073347;28;20681;-68
2022/07/25 11:51:38;;;;;;;6.70;3.72;;;;;;;;;;5073541;28;20213;-68
2022/07/25 11:54:12;;;;;;;3.72;3.28;;;;;;;;;;5073333;28;20269;-67
2022/07/25 11:56:38;;;;;;;6.23;3.57;;;;;;;;;;5073098;28;20221;-68
2022/07/25 11:59:04;;;;;;;5.50;3.40;;;;;;;;;;5073145;28;20174;-68
2022/07/25 12:01:35;;;;;;;5.20;3.30;;;;;;;;;;5073153;28;20264;-67
2022/07/25 12:04:15;;;;;;;4.57;3.80;;;;;;;;;;5073144;28;20631;-66
2022/07/25 12:06:42;;;;;;;6.10;3.93;;;;;;;;;;5055164;28;20182;-68
2022/07/25 12:09:12;;;;;;;5.77;3.50;;;;;;;;;;5073146;28;20174;-68
2022/07/25 12:11:38;;;;;;;5.27;3.90;;;;;;;;;;5055154;28;20182;-67
2022/07/25 12:14:05;;;;;;;4.00;3.43;;;;;;;;;;5072925;28;20180;-67
2022/07/25 12:16:31;;;;;;;4.23;3.47;;;;;;;;;;5073036;28;20217;-68
2022/07/25 12:18:57;;;;;;;5.13;3.23;;;;;;;;;;5055018;28;20181;-67
2022/07/25 12:21:23;;;;;;;7.27;3.90;;;;;;;;;;5054906;28;20231;-67
2022/07/25 12:23:49;;;;;;;6.57;3.47;;;;;;;;;;5072934;28;20177;-68
2022/07/25 12:26:15;;;;;;;5.37;3.97;;;;;;;;;;5054831;28;20301;-68
2022/07/25 12:28:41;;;;;;;4.37;3.97;;;;;;;;;;5072955;28;20227;-68
2022/07/25 12:31:08;;;;;;;7.40;3.83;;;;;;;;;;5072991;28;20174;-67
2022/07/25 12:33:34;;;;;;;6.50;3.47;;;;;;;;;;5075010;28;20173;-68
2022/07/25 12:36:01;;;;;;;7.93;3.83;;;;;;;;;;5060041;28;20251;-68
2022/07/25 12:38:27;;;;;;;6.07;3.50;;;;;;;;;;5076810;28;20201;-67
2022/07/25 12:40:53;;;;;;;3.63;3.27;;;;;;;;;;5076922;28;20219;-68
2022/07/25 12:43:19;;;;;;;4.47;3.60;;;;;;;;;;5077372;28;20273;-68
2022/07/25 12:45:45;;;;;;;5.03;3.57;;;;;;;;;;5076693;28;20720;-67
2022/07/25 12:48:13;;;;;;;5.33;3.63;;;;;;;;;;5076726;28;20256;-68
2022/07/25 12:50:39;;;;;;;3.93;3.50;;;;;;;;;;5058707;28;20189;-67
2022/07/25 12:53:05;;;;;;;4.47;3.47;;;;;;;;;;5058837;28;20186;-67
2022/07/25 12:55:31;;;;;;;5.27;3.80;;;;;;;;;;5076739;28;20664;-68
2022/07/25 12:57:57;;;;;;;3.90;3.53;;;;;;;;;;5058866;28;20240;-68
2022/07/25 13:00:23;;;;;;;4.10;3.53;;;;;;;;;;5076883;28;20174;-67
2022/07/25 13:02:50;;;;;;;4.13;3.23;;;;;;;;;;5076474;28;20556;-68
2022/07/25 13:05:17;;;;;;;4.60;3.70;;;;;;;;;;5076580;28;20185;-67
2022/07/25 13:07:43;;;;;;;3.33;3.03;;;;;;;;;;5076379;28;20261;-68
2022/07/25 13:10:09;;;;;;;5.47;3.30;;;;;;;;;;5076359;28;20206;-67
2022/07/25 13:12:35;;;;;;;6.07;3.15;;;;;;;;;;5076807;28;20206;-68
2022/07/25 13:15:01;;;;;;;5.10;3.53;;;;;;;;;;5076704;28;20566;-68
2022/07/25 13:17:27;;;;;;;7.23;3.20;;;;;;;;;;5075932;28;20747;-67
2022/07/25 13:19:53;;;;;;;5.13;3.40;;;;;;;;;;5058182;28;20174;-68
2022/07/25 13:22:19;;;;;;;7.97;3.27;;;;;;;;;;5076016;28;20185;-67
2022/07/25 13:24:45;;;;;;;4.03;3.03;;;;;;;;;;5075969;28;20239;-67
2022/07/25 13:27:11;;;;;;;3.77;3.23;;;;;;;;;;5076186;28;20181;-68
2022/07/25 13:29:37;;;;;;;4.97;3.60;;;;;;;;;;5058704;28;20209;-68
2022/07/25 13:32:03;;;;;;;3.23;2.93;;;;;;;;;;5076090;28;20178;-67
2022/07/25 13:34:29;;;;;;;13.07;3.13;;;;;;;;;;5076285;28;20658;-67
2022/07/25 13:36:55;;;;;;;8.10;2.37;;;;;;;;;;5075817;28;20197;-67
2022/07/25 13:39:21;;;;;;;4.87;2.60;;;;;;;;;;5075703;28;20181;-68
2022/07/25 13:41:47;;;;;;;4.20;2.87;;;;;;;;;;5076082;28;20181;-68
2022/07/25 13:44:14;;;;;;;3.33;2.50;;;;;;;;;;5074856;28;20182;-67
2022/07/25 13:46:40;;;;;;;3.83;2.60;;;;;;;;;;5058326;28;20247;-68
2022/07/25 13:49:06;;;;;;;3.40;2.60;;;;;;;;;;5076771;28;20182;-68
2022/07/25 13:51:32;;;;;;;5.87;3.20;;;;;;;;;;5057822;28;20181;-68
2022/07/25 13:53:58;;;;;;;3.53;2.50;;;;;;;;;;5057641;28;20235;-68
2022/07/25 13:56:24;;;;;;;3.63;2.67;;;;;;;;;;5075452;28;20204;-67
2022/07/25 13:58:50;;;;;;;3.20;2.80;;;;;;;;;;5057595;28;20628;-67
2022/07/25 14:01:16;;;;;;;6.13;3.00;;;;;;;;;;5075775;28;20589;-67
2022/07/25 14:03:42;;;;;;;2.77;2.53;;;;;;;;;;5075423;28;20177;-67
2022/07/25 14:06:10;;;;;;;7.73;2.90;;;;;;;;;;5057508;28;20209;-67
2022/07/25 14:08:36;;;;;;;3.93;2.83;;;;;;;;;;5075622;28;20174;-67
2022/07/25 14:11:04;;;;;;;8.67;3.30;;;;;;;;;;5057444;28;20185;-67
2022/07/25 14:13:31;;;;;;;4.87;2.87;;;;;;;;;;5075368;28;20178;-67
2022/07/25 14:15:57;;;;;;;4.80;2.77;;;;;;;;;;5075272;28;20213;-68
2022/07/25 14:18:24;;;;;;;4.43;3.00;;;;;;;;;;5075019;28;20340;-68
2022/07/25 14:20:50;;;;;;;3.27;2.87;;;;;;;;;;5075145;28;20178;-68
2022/07/25 14:23:16;;;;;;;3.47;2.93;;;;;;;;;;5075004;28;20548;-68
2022/07/25 14:25:42;;;;;;;3.10;2.70;;;;;;;;;;5056778;28;20688;-68
2022/07/25 14:28:08;;;;;;;6.33;2.93;;;;;;;;;;5075299;28;20174;-68
2022/07/25 14:30:34;;;;;;;3.37;2.97;;;;;;;;;;5056890;28;20182;-67
2022/07/25 14:33:00;;;;;;;3.73;3.30;;;;;;;;;;5074701;28;20715;-68
2022/07/25 14:35:26;;;;;;;4.23;3.33;;;;;;;;;;5074920;28;20605;-67
2022/07/25 14:37:52;;;;;;;5.67;3.00;;;;;;;;;;5074571;28;20209;-67